Time;durP1;ratioP1;P1;durP2;ratioP2;P2;SDS_P1;SDS_P2;PMS_P1;PMS_P2;Temp;Humidity;BMP_temperature;BMP_pressure;BME280_temperature;BME280_humidity;BME280_pressure;Samples;Min_cycle;Max_cycle;Signal;HPM_P1;HPM_P2
2022/08/15 00:02:13;;;;;;;25.77;18.20;;;;;;;18.71;100.00;98532.00;8391484;28;20041;-78
2022/08/15 00:06:31;;;;;;;27.23;18.02;;;;;;;18.75;100.00;98538.28;8363320;28;20076;-78
2022/08/15 00:10:33;;;;;;;24.92;17.80;;;;;;;18.77;100.00;98535.94;8391935;28;20052;-79
2022/08/15 00:14:36;;;;;;;25.35;18.02;;;;;;;18.79;100.00;98539.09;8388163;28;20049;-79
2022/08/15 00:18:37;;;;;;;24.17;17.08;;;;;;;18.80;100.00;98546.16;8369482;28;20045;-78
2022/08/15 00:22:46;;;;;;;25.35;18.08;;;;;;;18.79;100.00;98539.09;8346423;28;20519;-78
2022/08/15 00:26:48;;;;;;;25.90;18.40;;;;;;;18.79;100.00;98552.78;8377495;28;20087;-78
2022/08/15 00:30:49;;;;;;;28.60;18.80;;;;;;;18.79;100.00;98544.56;8380397;28;20056;-78
2022/08/15 00:34:51;;;;;;;28.60;17.92;;;;;;;18.77;100.00;98546.88;8391442;28;20044;-79
2022/08/15 00:38:53;;;;;;;30.13;20.25;;;;;;;18.78;100.00;98543.00;8385795;28;20040;-78
2022/08/15 00:42:54;;;;;;;28.63;19.23;;;;;;;18.78;100.00;98543.00;8388297;28;20043;-78
2022/08/15 00:46:58;;;;;;;31.38;20.58;;;;;;;18.80;100.00;98540.66;8392171;28;20044;-78
2022/08/15 00:50:59;;;;;;;27.52;19.67;;;;;;;18.81;100.00;98542.25;8373664;28;20059;-76
2022/08/15 00:55:06;;;;;;;29.52;19.55;;;;;;;18.81;100.00;98547.72;8392602;28;20048;-78
2022/08/15 00:59:09;;;;;;;28.10;20.60;;;;;;;18.82;100.00;98543.03;8391441;28;20488;-78
2022/08/15 01:03:39;;;;;;;33.15;22.23;;;;;;;18.81;100.00;98546.94;8378307;28;20055;-78
2022/08/15 01:07:41;;;;;;;;;;;;;;;18.81;100.00;98541.47;8264782;28;20050;-79
2022/08/15 01:11:54;;;;;;;33.45;21.95;;;;;;;18.79;100.00;98533.63;8233153;28;19941;-78
2022/08/15 01:15:55;;;;;;;36.65;22.52;;;;;;;18.79;100.00;98539.09;8263902;28;20445;-78
2022/08/15 01:20:32;;;;;;;33.65;23.17;;;;;;;18.77;100.00;98530.47;8248251;28;20056;-79
2022/08/15 01:24:45;;;;;;;30.38;21.98;;;;;;;18.73;100.00;98526.91;8261181;28;20068;-78
2022/08/15 01:28:47;;;;;;;35.80;22.38;;;;;;;18.71;100.00;98532.00;8246771;28;20051;-78
2022/08/15 01:32:48;;;;;;;35.88;22.88;;;;;;;18.66;100.00;98513.19;8248336;28;20046;-78
2022/08/15 01:36:49;;;;;;;35.65;22.15;;;;;;;18.65;100.00;98511.63;8253897;28;20130;-78
2022/08/15 01:40:59;;;;;;;33.75;22.02;;;;;;;18.66;100.00;98507.72;8249026;28;20051;-79
2022/08/15 01:45:07;;;;;;;35.13;22.65;;;;;;;18.64;100.00;98499.09;8332331;28;20045;-78
2022/08/15 01:49:18;;;;;;;33.35;23.00;;;;;;;18.63;100.00;98494.78;8304104;28;20519;-78
2022/08/15 01:53:20;;;;;;;32.88;22.88;;;;;;;18.63;100.00;98508.47;8330724;28;20513;-78
2022/08/15 01:57:21;;;;;;;37.13;23.00;;;;;;;18.61;100.00;98502.59;8336202;28;20045;-77
2022/08/15 02:01:37;;;;;;;37.88;22.48;;;;;;;18.58;100.00;98500.59;8382416;28;20063;-78
2022/08/15 02:05:38;;;;;;;33.10;23.10;;;;;;;18.59;100.00;98501.38;8388189;28;20049;-78
2022/08/15 02:09:41;;;;;;;34.92;24.45;;;;;;;18.58;100.00;98503.34;8394099;28;20603;-78
2022/08/15 02:13:44;;;;;;;35.67;22.60;;;;;;;18.56;100.00;98508.38;8398298;28;20488;-78
2022/08/15 02:17:45;;;;;;;33.75;23.55;;;;;;;18.55;100.00;98515.81;8364206;28;20099;-78
2022/08/15 02:21:47;;;;;;;38.95;23.55;;;;;;;18.58;100.00;98500.59;8396784;28;20044;-78
2022/08/15 02:25:49;;;;;;;38.45;24.33;;;;;;;18.58;100.00;98511.53;8373817;28;20091;-78
2022/08/15 02:29:53;;;;;;;38.38;25.55;;;;;;;18.58;100.00;98506.06;8360328;28;20044;-77
2022/08/15 02:33:58;;;;;;;39.63;24.17;;;;;;;18.58;100.00;98503.34;8379198;28;20055;-78
2022/08/15 02:38:01;;;;;;;35.80;23.42;;;;;;;18.57;100.00;98504.50;8382823;28;20044;-79
2022/08/15 02:42:03;;;;;;;38.08;24.58;;;;;;;18.52;100.00;98497.38;8347093;28;20056;-78
2022/08/15 02:46:04;;;;;;;38.95;24.55;;;;;;;18.48;100.00;98495.78;8375948;28;20048;-78
2022/08/15 02:50:07;;;;;;;45.53;26.23;;;;;;;18.48;100.00;98495.78;8387744;28;20053;-77
2022/08/15 02:54:09;;;;;;;42.25;25.30;;;;;;;18.47;100.00;98491.47;8396434;28;20051;-78
2022/08/15 02:58:11;;;;;;;40.13;25.33;;;;;;;18.46;100.00;98487.16;8381774;28;20043;-79
2022/08/15 03:02:12;;;;;;;39.03;25.83;;;;;;;18.46;100.00;98481.69;8361928;28;20048;-78
2022/08/15 03:06:15;;;;;;;39.97;26.45;;;;;;;18.41;100.00;98473.81;8393476;28;20068;-78
2022/08/15 03:10:16;;;;;;;38.65;26.25;;;;;;;18.40;100.00;98483.22;8391989;28;20032;-78
2022/08/15 03:14:21;;;;;;;42.97;26.15;;;;;;;18.39;100.00;98481.63;8382009;28;20082;-78
2022/08/15 03:18:26;;;;;;;38.75;25.92;;;;;;;18.39;100.00;98481.63;8390668;28;20044;-78
2022/08/15 03:22:30;;;;;;;44.65;25.92;;;;;;;18.38;100.00;98480.06;8389780;28;20045;-78
2022/08/15 03:26:31;;;;;;;43.15;26.30;;;;;;;18.41;100.00;98484.75;8385018;28;20052;-78
2022/08/15 03:30:32;;;;;;;40.20;25.10;;;;;;;18.43;100.00;98474.25;8389677;28;20555;-78
2022/08/15 03:34:33;;;;;;;36.95;24.23;;;;;;;18.44;100.00;98473.09;8374508;28;20059;-78
2022/08/15 03:38:34;;;;;;;37.80;26.58;;;;;;;18.44;100.00;98467.63;8382759;28;20057;-78
2022/08/15 03:42:35;;;;;;;36.00;26.23;;;;;;;18.41;100.00;98473.81;8388425;28;20101;-79
2022/08/15 03:46:37;;;;;;;42.88;26.88;;;;;;;18.43;100.00;98460.59;8396376;28;20041;-78
2022/08/15 03:50:39;;;;;;;44.13;27.33;;;;;;;18.45;100.00;98464.50;8393992;28;20425;-78
2022/08/15 03:54:40;;;;;;;39.13;27.25;;;;;;;18.48;100.00;98457.50;8376176;28;20049;-77
2022/08/15 03:58:42;;;;;;;44.35;27.15;;;;;;;18.49;100.00;98459.09;8392294;28;20049;-78
2022/08/15 04:02:43;;;;;;;46.60;27.60;;;;;;;18.47;100.00;98447.72;8387964;28;20090;-78
2022/08/15 04:06:44;;;;;;;45.53;27.67;;;;;;;18.49;100.00;98459.09;8383911;28;20103;-78
2022/08/15 04:10:46;;;;;;;39.83;27.25;;;;;;;18.52;100.00;98458.31;8369220;28;20048;-78
2022/08/15 04:14:47;;;;;;;38.25;27.35;;;;;;;18.54;100.00;98456.03;8375184;28;20114;-78
2022/08/15 04:18:48;;;;;;;42.10;26.15;;;;;;;18.59;100.00;98458.44;8369507;28;20056;-79
2022/08/15 04:22:51;;;;;;;41.88;27.65;;;;;;;18.66;100.00;98453.03;8359782;28;20443;-78
2022/08/15 04:26:52;;;;;;;43.75;27.70;;;;;;;18.74;100.00;98454.66;8395254;28;20045;-78
2022/08/15 04:30:53;;;;;;;38.80;25.83;;;;;;;18.81;100.00;98449.25;8345005;28;20053;-78
2022/08/15 04:34:54;;;;;;;44.33;26.98;;;;;;;18.89;100.00;98450.84;8395370;28;20171;-78
2022/08/15 04:38:55;;;;;;;39.60;26.85;;;;;;;18.99;100.00;98443.88;8387044;28;20053;-78
2022/08/15 04:42:58;;;;;;;40.63;26.63;;;;;;;19.09;100.00;98450.63;8388973;28;20157;-78
2022/08/15 04:46:59;;;;;;;40.28;26.95;;;;;;;19.18;100.00;98440.13;8327412;28;20052;-77
2022/08/15 04:51:02;;;;;;;40.10;26.90;;;;;;;19.28;100.00;98439.41;8342283;28;20515;-78
2022/08/15 04:55:04;;;;;;;41.55;26.05;;;;;;;19.39;100.00;98440.25;8376784;28;20045;-77
2022/08/15 04:59:05;;;;;;;37.22;26.23;;;;;;;19.54;100.00;98439.19;8377483;28;20037;-77
2022/08/15 05:03:13;;;;;;;43.25;26.65;;;;;;;19.68;100.00;98441.97;8375308;28;20098;-77
2022/08/15 05:07:14;;;;;;;42.05;25.23;;;;;;;19.83;100.00;98432.63;8378856;28;20664;-76
2022/08/15 05:11:18;;;;;;;39.75;25.85;;;;;;;19.95;100.00;98433.47;8378590;28;20037;-77
2022/08/15 05:15:21;;;;;;;39.53;26.00;;;;;;;20.04;100.00;98431.16;8356987;28;20064;-76
2022/08/15 05:19:21;;;;;;;40.47;25.55;;;;;;;20.10;100.00;98429.59;8377600;28;20049;-75
2022/08/15 05:23:25;;;;;;;37.55;24.50;;;;;;;20.10;100.00;98440.56;8353819;28;20044;-75
2022/08/15 05:27:26;;;;;;;40.47;25.55;;;;;;;20.07;100.00;98442.13;8372066;28;20112;-75
2022/08/15 05:31:27;;;;;;;40.60;26.35;;;;;;;20.07;100.00;98433.13;8331571;28;20045;-78
2022/08/15 05:35:30;;;;;;;40.00;25.58;;;;;;;20.08;100.00;98442.91;8385348;28;20053;-77
2022/08/15 05:39:32;;;;;;;39.75;26.77;;;;;;;20.21;100.00;98446.84;8388546;28;20041;-77
2022/08/15 05:43:44;;;;;;;38.25;24.95;;;;;;;20.38;99.91;98435.16;8399226;28;20450;-77
2022/08/15 05:47:52;;;;;;;35.15;24.10;;;;;;;20.51;99.17;98455.56;8378447;28;20132;-75
2022/08/15 05:52:09;;;;;;;40.63;23.98;;;;;;;20.61;98.55;98448.53;8394839;28;20048;-76
2022/08/15 05:56:27;;;;;;;41.28;25.75;;;;;;;20.65;98.29;98443.81;8354527;28;20044;-77
2022/08/15 06:00:29;;;;;;;39.17;25.08;;;;;;;20.63;98.54;98446.94;8381748;28;20488;-76
2022/08/15 06:04:50;;;;;;;38.35;24.67;;;;;;;20.62;98.77;98450.84;8390716;28;20413;-75
2022/08/15 06:08:56;;;;;;;41.70;25.08;;;;;;;20.62;98.66;98445.38;8397102;28;20055;-76
2022/08/15 06:13:08;;;;;;;34.83;25.17;;;;;;;20.64;98.81;98451.25;8402882;28;20419;-76
2022/08/15 06:17:20;;;;;;;38.10;24.85;;;;;;;20.73;98.47;98444.63;8373700;28;20044;-76
2022/08/15 06:21:45;;;;;;;36.97;25.02;;;;;;;20.81;98.17;98451.66;8374145;28;20087;-76
2022/08/15 06:26:22;;;;;;;39.70;26.35;;;;;;;20.88;97.96;98451.66;8389028;28;20079;-75
2022/08/15 06:30:48;;;;;;;44.00;25.70;;;;;;;20.96;97.79;98453.22;8212407;28;20062;-74
2022/08/15 06:34:57;;;;;;;38.10;25.42;;;;;;;21.07;97.61;98456.75;8240342;28;20554;-75
2022/08/15 06:39:13;;;;;;;43.70;24.10;;;;;;;21.24;97.04;98452.44;8224640;28;20073;-76
2022/08/15 06:43:14;;;;;;;39.35;25.88;;;;;;;21.34;96.58;98463.41;8230924;28;20126;-76
2022/08/15 06:47:16;;;;;;;38.60;25.50;;;;;;;21.37;96.71;98462.59;8227488;28;20054;-76
2022/08/15 06:51:18;;;;;;;39.58;24.83;;;;;;;21.40;96.17;98456.34;8223465;28;20078;-75
2022/08/15 06:55:53;;;;;;;44.38;26.33;;;;;;;21.42;96.14;98448.47;8228144;28;20055;-75
2022/08/15 07:00:03;;;;;;;44.55;27.05;;;;;;;21.44;96.06;98451.63;8230624;28;20059;-75
2022/08/15 07:04:09;;;;;;;45.80;27.50;;;;;;;21.43;96.09;98458.28;8217146;28;20552;-76
2022/08/15 07:08:33;;;;;;;41.50;26.60;;;;;;;21.42;96.14;98470.44;8342186;28;20424;-76
2022/08/15 07:12:56;;;;;;;41.35;25.25;;;;;;;21.49;95.96;98475.94;8349506;28;20170;-75
2022/08/15 07:17:27;;;;;;;42.35;26.85;;;;;;;21.56;95.96;98466.09;8372793;28;20048;-75
2022/08/15 07:21:28;;;;;;;36.92;26.25;;;;;;;21.60;95.95;98469.63;8379436;28;20052;-75
2022/08/15 07:25:32;;;;;;;40.13;26.50;;;;;;;21.67;95.70;98475.09;8321001;28;20049;-75
2022/08/15 07:29:36;;;;;;;43.58;28.08;;;;;;;21.76;95.51;98472.72;8382015;28;20051;-75
2022/08/15 07:33:44;;;;;;;49.72;28.55;;;;;;;21.78;95.22;98467.63;8378132;28;20055;-75
2022/08/15 07:37:58;;;;;;;44.23;27.00;;;;;;;21.81;94.86;98475.06;8380503;28;20044;-74
2022/08/15 07:42:20;;;;;;;42.63;27.75;;;;;;;21.89;94.87;98471.06;8365388;28;20123;-75
2022/08/15 07:46:34;;;;;;;39.67;27.20;;;;;;;21.92;94.76;98470.28;8395546;28;20074;-75
2022/08/15 07:50:42;;;;;;;40.63;25.85;;;;;;;21.91;94.09;98471.47;8346769;28;20420;-76
2022/08/15 07:54:43;;;;;;;40.28;26.73;;;;;;;21.98;93.78;98479.72;8376502;28;20080;-75
2022/08/15 07:58:44;;;;;;;44.80;26.20;;;;;;;22.05;93.81;98474.19;8359268;28;20040;-76
2022/08/15 08:03:10;;;;;;;42.80;25.75;;;;;;;22.17;93.54;98487.50;8411117;28;20430;-74
2022/08/15 08:07:34;;;;;;;36.90;25.65;;;;;;;22.32;93.62;98477.97;8342729;28;20055;-75
2022/08/15 08:11:49;;;;;;;36.13;26.15;;;;;;;22.44;93.09;98473.19;8389310;28;20102;-75
2022/08/15 08:16:19;;;;;;;39.63;25.63;;;;;;;22.59;92.85;98469.16;8395620;28;20072;-76
2022/08/15 08:20:25;;;;;;;;;;;;;;;22.73;92.15;98471.88;8392920;28;20056;-75
2022/08/15 08:24:26;;;;;;;37.92;23.55;;;;;;;22.85;91.25;98471.34;8377373;28;20452;-76
2022/08/15 08:28:33;;;;;;;35.45;22.27;;;;;;;23.00;90.34;98475.56;8395256;28;20110;-76
2022/08/15 08:32:59;;;;;;;35.55;22.02;;;;;;;23.11;89.24;98479.00;8393200;28;20084;-76
2022/08/15 08:37:07;;;;;;;43.08;23.27;;;;;;;23.24;89.59;98473.00;8396800;28;20040;-76
2022/08/15 08:41:39;;;;;;;31.80;20.55;;;;;;;23.38;88.65;98481.09;8381012;28;20044;-76
2022/08/15 08:45:52;;;;;;;34.00;20.73;;;;;;;23.51;87.91;98484.97;8246592;28;20062;-76
2022/08/15 08:50:04;;;;;;;30.02;21.40;;;;;;;23.61;86.53;98484.06;8250709;28;20104;-76
2022/08/15 08:54:15;;;;;;;30.35;20.83;;;;;;;23.71;86.12;98488.69;8259819;28;20046;-75
2022/08/15 08:58:23;;;;;;;30.90;20.90;;;;;;;23.86;85.35;98483.78;8259430;28;20125;-76
2022/08/15 09:02:27;;;;;;;29.23;19.45;;;;;;;24.04;84.70;98483.56;8230054;28;20046;-75
2022/08/15 09:06:36;;;;;;;25.48;17.33;;;;;;;24.16;83.73;98483.03;8258944;28;20073;-75
2022/08/15 09:10:38;;;;;;;;;;;;;;;24.24;83.84;98487.28;8235228;28;20494;-76
2022/08/15 09:14:51;;;;;;;25.08;17.98;;;;;;;24.28;82.55;98474.19;8205180;28;20480;-76
2022/08/15 09:19:10;;;;;;;26.70;18.13;;;;;;;24.44;82.31;98479.88;8265726;28;20073;-76
2022/08/15 09:23:12;;;;;;;25.52;17.38;;;;;;;24.61;81.11;98473.34;8375194;28;20484;-76
2022/08/15 09:27:20;;;;;;;23.92;17.13;;;;;;;24.80;80.28;98475.41;8400786;28;20044;-76
2022/08/15 09:31:26;;;;;;;27.67;17.30;;;;;;;24.96;79.96;98466.50;8400143;28;20135;-76
2022/08/15 09:35:51;;;;;;;23.20;16.92;;;;;;;25.14;78.04;98460.66;8411133;28;20045;-76
2022/08/15 09:40:02;;;;;;;25.55;17.73;;;;;;;25.29;78.02;98461.97;8388969;28;20040;-76
2022/08/15 09:44:20;;;;;;;25.25;16.50;;;;;;;25.44;77.26;98457.75;8378888;28;20040;-75
2022/08/15 09:48:40;;;;;;;24.52;18.00;;;;;;;25.59;76.14;98458.31;8399363;28;20130;-76
2022/08/15 09:53:07;;;;;;;25.23;16.58;;;;;;;25.65;75.17;98459.34;8400152;28;20063;-76
2022/08/15 09:57:23;;;;;;;27.42;17.08;;;;;;;25.76;74.98;98450.84;8263620;28;20097;-75
2022/08/15 10:01:29;;;;;;;26.00;17.85;;;;;;;25.94;74.97;98445.75;8253230;28;20584;-75
2022/08/15 10:05:49;;;;;;;24.33;16.35;;;;;;;26.06;74.22;98442.34;8248147;28;20112;-75
2022/08/15 10:09:56;;;;;;;31.48;16.90;;;;;;;26.27;73.73;98436.34;8249642;28;20532;-77
2022/08/15 10:14:06;;;;;;;23.77;16.45;;;;;;;26.45;72.43;98435.94;8240372;28;20062;-76
2022/08/15 10:18:09;;;;;;;26.45;17.08;;;;;;;26.38;72.30;98431.38;8247768;28;20093;-75
2022/08/15 10:22:22;;;;;;;22.92;16.63;;;;;;;26.38;72.06;98431.38;8257345;28;20050;-75
2022/08/15 10:26:31;;;;;;;25.98;15.40;;;;;;;26.54;71.52;98422.28;8233330;28;20056;-75
2022/08/15 10:30:48;;;;;;;24.58;15.52;;;;;;;26.69;70.95;98422.72;8256825;28;20611;-75
2022/08/15 10:34:54;;;;;;;22.88;15.95;;;;;;;26.88;70.93;98419.88;8352247;28;20057;-75
2022/08/15 10:39:10;;;;;;;24.55;15.90;;;;;;;27.05;69.72;98412.34;8390118;28;20380;-74
2022/08/15 10:43:24;;;;;;;37.20;17.00;;;;;;;27.20;70.11;98419.06;8397061;28;20045;-74
2022/08/15 10:47:49;;;;;;;25.55;15.95;;;;;;;27.30;68.10;98417.22;8295029;28;20042;-75
2022/08/15 10:51:55;;;;;;;26.73;14.60;;;;;;;27.30;68.17;98412.44;8289305;28;20054;-75
2022/08/15 10:56:15;;;;;;;31.13;16.00;;;;;;;27.42;68.22;98404.63;8295971;28;20052;-76
2022/08/15 11:00:41;;;;;;;28.42;14.93;;;;;;;27.47;67.18;98409.63;8294239;28;20617;-75
2022/08/15 11:04:42;;;;;;;22.48;14.88;;;;;;;27.59;65.93;98408.94;8260541;28;20046;-75
2022/08/15 11:08:50;;;;;;;20.05;14.07;;;;;;;27.72;66.29;98398.63;8261916;28;20489;-75
2022/08/15 11:12:57;;;;;;;22.08;14.25;;;;;;;27.83;65.61;98404.66;8253902;28;20538;-77
2022/08/15 11:17:00;;;;;;;20.67;12.82;;;;;;;27.97;64.11;98397.91;8261490;28;20046;-75
2022/08/15 11:21:17;;;;;;;22.33;12.98;;;;;;;28.13;62.21;98390.28;8261601;28;20113;-76
2022/08/15 11:25:21;;;;;;;18.30;12.85;;;;;;;28.26;63.03;98392.28;8310208;28;20077;-76
2022/08/15 11:29:24;;;;;;;18.63;12.35;;;;;;;28.33;61.70;98386.53;8301301;28;20061;-76
2022/08/15 11:33:42;;;;;;;21.58;13.00;;;;;;;28.40;61.31;98397.38;8332810;28;20083;-76
2022/08/15 11:37:43;;;;;;;20.63;12.50;;;;;;;28.58;61.28;98397.63;8375071;28;20072;-76
2022/08/15 11:41:50;;;;;;;17.88;12.38;;;;;;;28.72;60.08;98391.59;8364864;28;20053;-76
2022/08/15 11:45:53;;;;;;;17.63;12.03;;;;;;;28.39;61.17;98395.88;8360821;28;20040;-76
2022/08/15 11:50:04;;;;;;;18.52;12.18;;;;;;;28.56;60.86;98402.81;8363480;28;20310;-77
2022/08/15 11:54:22;;;;;;;15.40;11.88;;;;;;;28.46;59.96;98395.63;8356650;28;20049;-77
2022/08/15 11:58:44;;;;;;;19.17;11.30;;;;;;;27.93;61.12;98392.47;8366799;28;20088;-77
2022/08/15 12:02:45;;;;;;;19.50;10.88;;;;;;;27.58;61.73;98382.41;8375131;28;20051;-76
2022/08/15 12:06:46;;;;;;;20.17;11.43;;;;;;;27.91;61.91;98378.28;8366895;28;20056;-75
2022/08/15 12:10:47;;;;;;;15.30;11.07;;;;;;;28.06;62.30;98379.38;8352275;28;20041;-76
2022/08/15 12:14:48;;;;;;;15.25;10.95;;;;;;;28.43;60.19;98388.19;8372137;28;20488;-77
2022/08/15 12:18:49;;;;;;;18.30;11.02;;;;;;;28.72;59.26;98388.84;8304355;28;20437;-77
2022/08/15 12:22:50;;;;;;;20.35;10.73;;;;;;;28.90;58.33;98382.69;8280175;28;20133;-77
2022/08/15 12:26:52;;;;;;;18.98;11.68;;;;;;;29.20;58.91;98381.25;8293449;28;20054;-76
2022/08/15 12:30:57;;;;;;;18.58;10.70;;;;;;;29.27;57.13;98386.56;8305199;28;20077;-76
2022/08/15 12:34:59;;;;;;;20.17;11.10;;;;;;;29.24;56.93;98387.47;8298652;28;20095;-76
2022/08/15 12:38:59;;;;;;;15.77;12.15;;;;;;;29.44;57.83;98378.84;8303401;28;20061;-75
2022/08/15 12:43:02;;;;;;;16.00;10.50;;;;;;;29.40;57.50;98380.97;8309435;28;20056;-76
2022/08/15 12:47:03;;;;;;;15.90;10.50;;;;;;;28.96;56.02;98378.91;8326030;28;20046;-76
2022/08/15 12:51:07;;;;;;;16.95;10.65;;;;;;;28.79;56.49;98369.16;8415210;28;20074;-76
2022/08/15 12:55:09;;;;;;;15.02;10.88;;;;;;;28.60;56.91;98350.72;8402728;28;20044;-77
2022/08/15 12:59:12;;;;;;;22.85;12.25;;;;;;;28.45;58.24;98346.84;8393786;28;20079;-78
2022/08/15 13:03:19;;;;;;;21.80;11.23;;;;;;;28.22;60.47;98352.78;8371687;28;20040;-78
2022/08/15 13:07:22;;;;;;;20.27;11.27;;;;;;;27.90;61.36;98354.50;8370236;28;20492;-78
2022/08/15 13:11:23;;;;;;;18.95;10.82;;;;;;;27.63;62.14;98345.81;8352795;28;20458;-79
2022/08/15 13:15:24;;;;;;;15.65;9.93;;;;;;;27.54;62.16;98331.81;8384731;28;20064;-78
2022/08/15 13:19:29;;;;;;;15.30;10.07;;;;;;;27.44;62.46;98343.97;8356472;28;20064;-78
2022/08/15 13:23:40;;;;;;;18.10;9.98;;;;;;;27.37;63.50;98327.53;8362040;28;20062;-78
2022/08/15 13:27:44;;;;;;;14.75;9.98;;;;;;;27.31;63.93;98328.06;8388161;28;20059;-78
2022/08/15 13:31:46;;;;;;;16.33;10.27;;;;;;;27.26;64.13;98323.06;8333258;28;20057;-77
2022/08/15 13:35:47;;;;;;;16.00;9.80;;;;;;;27.25;64.13;98326.28;8396026;28;20064;-78
2022/08/15 13:39:48;;;;;;;15.90;9.40;;;;;;;27.28;64.98;98320.63;8353947;28;20098;-79
2022/08/15 13:43:51;;;;;;;16.95;9.85;;;;;;;27.27;64.97;98324.63;8400239;28;20045;-78
2022/08/15 13:47:52;;;;;;;16.17;9.55;;;;;;;27.27;65.17;98324.63;8399849;28;20094;-78
2022/08/15 13:51:54;;;;;;;14.57;9.73;;;;;;;27.26;65.29;98316.75;8399908;28;20049;-78
2022/08/15 13:55:55;;;;;;;15.13;10.30;;;;;;;27.22;65.68;98311.31;8382291;28;20079;-79
2022/08/15 13:59:56;;;;;;;15.82;9.57;;;;;;;27.20;65.74;98308.19;8398629;28;20044;-79
2022/08/15 14:04:06;;;;;;;18.33;9.90;;;;;;;27.17;65.25;98297.22;8379364;28;20037;-78
2022/08/15 14:08:07;;;;;;;19.98;10.63;;;;;;;27.13;65.60;98286.22;8398914;28;20074;-78
2022/08/15 14:12:09;;;;;;;17.50;9.82;;;;;;;27.09;65.54;98288.31;8399503;28;20060;-79
2022/08/15 14:16:11;;;;;;;11.10;9.40;;;;;;;27.02;64.12;98291.25;8399555;28;20044;-79
2022/08/15 14:20:17;;;;;;;15.68;10.07;;;;;;;26.97;64.26;98283.50;8398069;28;20049;-79
2022/08/15 14:24:17;;;;;;;14.85;10.70;;;;;;;26.95;64.87;98285.94;8397451;28;20044;-79
2022/08/15 14:28:19;;;;;;;13.93;10.15;;;;;;;26.92;65.38;98274.94;8398772;28;20049;-79
2022/08/15 14:32:20;;;;;;;17.80;10.48;;;;;;;26.91;65.33;98279.72;8398815;28;20063;-79
2022/08/15 14:36:21;;;;;;;15.07;10.23;;;;;;;26.89;65.96;98271.06;8399353;28;20135;-79
2022/08/15 14:40:29;;;;;;;14.57;10.38;;;;;;;26.90;66.58;98267.09;8406895;28;20056;-79
2022/08/15 14:44:30;;;;;;;17.58;10.43;;;;;;;26.93;66.94;98271.75;8380072;28;20041;-78
2022/08/15 14:48:32;;;;;;;13.35;10.52;;;;;;;26.96;67.25;98265.34;8398869;28;20079;-78
2022/08/15 14:52:33;;;;;;;15.48;10.27;;;;;;;26.87;65.64;98284.56;8395092;28;20056;-81
2022/08/15 14:56:35;;;;;;;14.73;10.70;;;;;;;26.70;65.53;98274.72;8395470;28;20044;-80
2022/08/15 15:00:37;;;;;;;14.30;10.60;;;;;;;26.58;65.84;98289.28;8396081;28;20048;-79
2022/08/15 15:04:38;;;;;;;14.25;10.60;;;;;;;26.43;65.40;98289.66;8396034;28;20036;-78
2022/08/15 15:08:40;;;;;;;15.20;9.85;;;;;;;26.49;65.57;98282.34;8397196;28;20056;-78
2022/08/15 15:12:42;;;;;;;13.30;10.63;;;;;;;26.52;65.78;98291.03;8397274;28;20059;-79
2022/08/15 15:16:44;;;;;;;12.38;10.38;;;;;;;26.54;65.74;98288.59;8317987;28;20053;-79
2022/08/15 15:20:45;;;;;;;14.52;11.23;;;;;;;26.59;66.75;98285.31;8324316;28;20057;-79
2022/08/15 15:24:46;;;;;;;16.77;10.95;;;;;;;26.58;66.56;98297.59;8322718;28;20041;-79
2022/08/15 15:28:48;;;;;;;16.05;10.75;;;;;;;26.48;66.32;98291.91;8327412;28;20065;-79
2022/08/15 15:32:49;;;;;;;18.30;11.10;;;;;;;26.49;66.70;98292.66;8323770;28;20199;-80
2022/08/15 15:36:49;;;;;;;14.65;10.43;;;;;;;26.35;66.24;98298.56;8337275;28;20053;-79
2022/08/15 15:40:51;;;;;;;14.70;10.55;;;;;;;26.33;66.39;98301.75;8360037;28;20049;-79
2022/08/15 15:44:52;;;;;;;16.27;10.82;;;;;;;26.23;66.34;98313.88;8326905;28;20049;-79
2022/08/15 15:48:54;;;;;;;14.23;11.18;;;;;;;26.22;66.99;98311.53;8314027;28;20053;-79
2022/08/15 15:53:23;;;;;;;18.15;10.25;;;;;;;26.18;67.61;98311.59;8353161;28;20083;-79
2022/08/15 15:57:26;;;;;;;16.05;10.20;;;;;;;26.15;67.67;98312.47;8326670;28;20057;-79
2022/08/15 16:01:27;;;;;;;13.50;10.50;;;;;;;26.06;67.78;98304.00;8326594;28;20056;-79
2022/08/15 16:05:32;;;;;;;14.48;10.00;;;;;;;25.97;68.32;98301.03;8326558;28;20583;-79
2022/08/15 16:09:33;;;;;;;14.30;9.65;;;;;;;25.91;68.99;98302.78;8326337;28;20057;-79
2022/08/15 16:13:58;;;;;;;12.68;10.00;;;;;;;25.85;69.81;98293.41;8326375;28;20192;-79
2022/08/15 16:18:17;;;;;;;12.02;9.90;;;;;;;25.75;70.65;98305.50;8324663;28;20570;-79
2022/08/15 16:22:24;;;;;;;15.20;10.77;;;;;;;25.74;71.89;98298.41;8297777;28;20168;-79
2022/08/15 16:26:33;;;;;;;13.57;10.40;;;;;;;25.70;71.68;98300.47;8324498;28;20061;-79
2022/08/15 16:30:43;;;;;;;12.57;9.95;;;;;;;25.63;72.23;98304.97;8309345;28;20096;-78
2022/08/15 16:34:54;;;;;;;13.45;10.48;;;;;;;25.56;72.33;98305.09;8340073;28;20057;-78
2022/08/15 16:39:34;;;;;;;14.02;10.55;;;;;;;25.47;72.65;98307.66;8359292;28;20057;-79
2022/08/15 16:43:36;;;;;;;;;;;;;;;25.42;72.89;98310.91;8323956;28;20469;-79
2022/08/15 16:48:03;;;;;;;15.50;10.43;;;;;;;25.39;73.84;98295.16;8324029;28;19921;-79
2022/08/15 16:52:07;;;;;;;16.25;10.75;;;;;;;25.32;74.52;98300.84;8322068;28;20045;-79
2022/08/15 16:56:08;;;;;;;11.98;9.90;;;;;;;25.23;74.36;98297.88;8323721;28;20053;-79
2022/08/15 17:00:15;;;;;;;14.80;11.00;;;;;;;25.10;75.14;98299.72;8313695;28;20085;-79
2022/08/15 17:04:34;;;;;;;17.02;10.10;;;;;;;24.99;75.38;98288.88;8295701;28;20132;-79
2022/08/15 17:08:55;;;;;;;13.88;10.38;;;;;;;24.83;75.92;98292.31;8322493;28;20050;-79
2022/08/15 17:13:31;;;;;;;15.25;10.68;;;;;;;24.69;76.75;98289.78;8312306;28;20057;-79
2022/08/15 17:17:44;;;;;;;16.10;10.68;;;;;;;24.54;77.02;98296.78;8176926;29;20055;-80
2022/08/15 17:22:09;;;;;;;14.55;11.32;;;;;;;24.41;77.71;98298.59;8253409;28;20046;-79
2022/08/15 17:26:24;;;;;;;16.55;11.00;;;;;;;24.27;78.59;98309.88;8258196;28;20471;-75
2022/08/15 17:30:30;;;;;;;13.82;10.82;;;;;;;24.18;78.71;98320.63;8269390;28;20506;-80
2022/08/15 17:34:31;;;;;;;13.52;10.30;;;;;;;24.12;79.10;98325.03;8225888;28;20613;-79
2022/08/15 17:38:36;;;;;;;15.75;11.00;;;;;;;24.07;79.98;98333.78;8228528;28;20459;-80
2022/08/15 17:42:39;;;;;;;19.15;11.23;;;;;;;24.03;80.22;98333.84;8228646;28;20665;-79
2022/08/15 17:46:47;;;;;;;16.70;10.75;;;;;;;23.97;80.52;98336.28;8224941;28;20058;-79
2022/08/15 17:50:50;;;;;;;17.48;11.27;;;;;;;23.88;80.66;98322.25;8212267;28;20182;-79
2022/08/15 17:55:10;;;;;;;15.93;10.25;;;;;;;23.79;80.96;98324.75;8289808;28;20056;-79
2022/08/15 17:59:17;;;;;;;16.65;11.30;;;;;;;23.72;80.98;98324.84;8305960;28;20057;-79
2022/08/15 18:03:19;;;;;;;17.00;10.80;;;;;;;23.64;81.37;98323.34;8323378;28;20063;-79
2022/08/15 18:07:27;;;;;;;17.77;11.02;;;;;;;23.52;81.64;98326.69;8352594;28;20065;-79
2022/08/15 18:11:31;;;;;;;19.90;11.63;;;;;;;23.39;82.24;98333.91;8318696;28;20094;-80
2022/08/15 18:15:33;;;;;;;15.18;10.85;;;;;;;23.28;82.52;98338.75;8322202;28;20038;-80
2022/08/15 18:19:35;;;;;;;17.38;11.00;;;;;;;23.13;83.03;98338.91;8324192;28;20390;-80
2022/08/15 18:23:37;;;;;;;18.17;11.45;;;;;;;22.99;83.48;98336.34;8308507;28;20100;-80
2022/08/15 18:27:41;;;;;;;14.48;11.35;;;;;;;22.83;83.63;98347.13;8316765;28;20045;-79
2022/08/15 18:32:04;;;;;;;14.45;10.80;;;;;;;22.67;84.34;98347.63;8316833;28;20060;-78
2022/08/15 18:36:09;;;;;;;15.18;12.27;;;;;;;22.57;84.58;98355.97;8373529;28;20049;-78
2022/08/15 18:44:47;;;;;;;13.95;11.15;;;;;;;22.29;84.78;98367.97;8393071;28;20120;-78
2022/08/15 18:49:06;;;;;;;17.20;11.80;;;;;;;22.20;84.72;98376.69;8384741;28;20041;-77
2022/08/15 18:53:19;;;;;;;15.15;10.95;;;;;;;22.10;85.00;98366.53;8385389;28;20474;-79
2022/08/15 18:57:22;;;;;;;14.27;11.82;;;;;;;22.01;85.38;98368.94;8383514;28;20066;-78
2022/08/15 19:01:29;;;;;;;22.60;12.43;;;;;;;21.91;85.38;98375.25;8392882;28;20049;-78